sensor_id;sensor_type;location;lat;lon;timestamp;P1;durP1;ratioP1;P2;durP2;ratioP2
31734;SDS011;18313;48.518;9.124;2023-01-10T00:02:21;3.60;;;0.85;;
31734;SDS011;18313;48.518;9.124;2023-01-10T00:04:48;4.05;;;0.90;;
31734;SDS011;18313;48.518;9.124;2023-01-10T00:07:15;2.15;;;1.15;;
31734;SDS011;18313;48.518;9.124;2023-01-10T00:09:43;1.25;;;0.65;;
31734;SDS011;18313;48.518;9.124;2023-01-10T00:12:10;1.50;;;0.70;;
31734;SDS011;18313;48.518;9.124;2023-01-10T00:14:55;1.67;;;0.57;;
31734;SDS011;18313;48.518;9.124;2023-01-10T00:17:23;1.40;;;0.63;;
31734;SDS011;18313;48.518;9.124;2023-01-10T00:19:50;0.98;;;0.70;;
31734;SDS011;18313;48.518;9.124;2023-01-10T00:22:17;4.25;;;0.70;;
31734;SDS011;18313;48.518;9.124;2023-01-10T00:24:48;1.33;;;0.70;;
31734;SDS011;18313;48.518;9.124;2023-01-10T00:27:15;0.77;;;0.57;;
31734;SDS011;18313;48.518;9.124;2023-01-10T00:29:48;1.63;;;0.50;;
31734;SDS011;18313;48.518;9.124;2023-01-10T00:32:18;0.63;;;0.60;;
31734;SDS011;18313;48.518;9.124;2023-01-10T00:34:46;1.02;;;0.60;;
31734;SDS011;18313;48.518;9.124;2023-01-10T00:37:13;0.70;;;0.50;;
31734;SDS011;18313;48.518;9.124;2023-01-10T00:39:40;1.40;;;0.57;;
31734;SDS011;18313;48.518;9.124;2023-01-10T00:42:08;0.85;;;0.60;;
31734;SDS011;18313;48.518;9.124;2023-01-10T00:44:55;1.15;;;0.50;;
31734;SDS011;18313;48.518;9.124;2023-01-10T00:47:22;0.65;;;0.55;;
31734;SDS011;18313;48.518;9.124;2023-01-10T00:49:50;0.82;;;0.57;;
31734;SDS011;18313;48.518;9.124;2023-01-10T00:52:17;0.73;;;0.60;;
31734;SDS011;18313;48.518;9.124;2023-01-10T00:54:44;0.45;;;0.43;;
31734;SDS011;18313;48.518;9.124;2023-01-10T00:57:11;0.50;;;0.50;;
31734;SDS011;18313;48.518;9.124;2023-01-10T00:59:40;0.40;;;0.40;;
31734;SDS011;18313;48.518;9.124;2023-01-10T01:02:07;0.95;;;0.50;;
31734;SDS011;18313;48.518;9.124;2023-01-10T01:04:34;0.95;;;0.50;;
31734;SDS011;18313;48.518;9.124;2023-01-10T01:07:01;1.67;;;0.60;;
31734;SDS011;18313;48.518;9.124;2023-01-10T01:09:29;1.17;;;0.70;;
31734;SDS011;18313;48.518;9.124;2023-01-10T01:11:56;0.50;;;0.50;;
31734;SDS011;18313;48.518;9.124;2023-01-10T01:14:23;0.85;;;0.50;;
31734;SDS011;18313;48.518;9.124;2023-01-10T01:16:51;3.08;;;0.70;;
31734;SDS011;18313;48.518;9.124;2023-01-10T01:19:18;2.63;;;0.80;;
31734;SDS011;18313;48.518;9.124;2023-01-10T01:21:45;0.98;;;0.60;;
31734;SDS011;18313;48.518;9.124;2023-01-10T01:24:12;0.95;;;0.60;;
31734;SDS011;18313;48.518;9.124;2023-01-10T01:26:39;1.58;;;0.63;;
31734;SDS011;18313;48.518;9.124;2023-01-10T01:29:08;1.50;;;0.70;;
31734;SDS011;18313;48.518;9.124;2023-01-10T01:31:35;2.17;;;0.70;;
31734;SDS011;18313;48.518;9.124;2023-01-10T01:34:02;1.05;;;0.70;;
31734;SDS011;18313;48.518;9.124;2023-01-10T01:36:29;1.15;;;0.88;;
31734;SDS011;18313;48.518;9.124;2023-01-10T01:38:56;0.85;;;0.60;;
31734;SDS011;18313;48.518;9.124;2023-01-10T01:41:23;1.60;;;0.60;;
31734;SDS011;18313;48.518;9.124;2023-01-10T01:44:13;1.10;;;0.73;;
31734;SDS011;18313;48.518;9.124;2023-01-10T01:46:44;1.63;;;0.63;;
31734;SDS011;18313;48.518;9.124;2023-01-10T01:49:19;1.40;;;0.70;;
31734;SDS011;18313;48.518;9.124;2023-01-10T01:51:50;2.17;;;0.82;;
31734;SDS011;18313;48.518;9.124;2023-01-10T01:54:22;3.25;;;1.00;;
31734;SDS011;18313;48.518;9.124;2023-01-10T01:56:50;1.02;;;0.65;;
31734;SDS011;18313;48.518;9.124;2023-01-10T01:59:40;1.02;;;0.60;;
31734;SDS011;18313;48.518;9.124;2023-01-10T02:02:10;2.00;;;0.90;;
31734;SDS011;18313;48.518;9.124;2023-01-10T02:07:49;1.90;;;0.90;;
31734;SDS011;18313;48.518;9.124;2023-01-10T02:13:21;1.45;;;1.25;;
31734;SDS011;18313;48.518;9.124;2023-01-10T02:15:51;1.58;;;1.02;;
31734;SDS011;18313;48.518;9.124;2023-01-10T02:18:18;1.33;;;0.70;;
31734;SDS011;18313;48.518;9.124;2023-01-10T02:20:51;1.33;;;0.70;;
31734;SDS011;18313;48.518;9.124;2023-01-10T02:23:43;1.80;;;0.80;;
31734;SDS011;18313;48.518;9.124;2023-01-10T02:26:39;1.33;;;0.80;;
31734;SDS011;18313;48.518;9.124;2023-01-10T02:29:24;1.58;;;0.80;;
31734;SDS011;18313;48.518;9.124;2023-01-10T02:35:22;1.67;;;0.80;;
31734;SDS011;18313;48.518;9.124;2023-01-10T02:38:29;3.03;;;0.80;;
31734;SDS011;18313;48.518;9.124;2023-01-10T02:41:20;2.35;;;0.80;;
31734;SDS011;18313;48.518;9.124;2023-01-10T02:44:33;2.30;;;0.60;;
31734;SDS011;18313;48.518;9.124;2023-01-10T02:46:55;1.73;;;0.63;;
31734;SDS011;18313;48.518;9.124;2023-01-10T02:49:23;1.40;;;0.75;;
31734;SDS011;18313;48.518;9.124;2023-01-10T02:51:50;1.02;;;0.70;;
31734;SDS011;18313;48.518;9.124;2023-01-10T02:54:18;2.17;;;0.63;;
31734;SDS011;18313;48.518;9.124;2023-01-10T03:02:28;0.85;;;0.60;;
31734;SDS011;18313;48.518;9.124;2023-01-10T03:05:17;2.35;;;0.80;;
31734;SDS011;18313;48.518;9.124;2023-01-10T03:08:00;2.92;;;0.70;;
31734;SDS011;18313;48.518;9.124;2023-01-10T03:10:46;2.33;;;0.80;;
31734;SDS011;18313;48.518;9.124;2023-01-10T03:16:09;1.13;;;0.60;;
31734;SDS011;18313;48.518;9.124;2023-01-10T03:18:47;0.40;;;0.40;;
31734;SDS011;18313;48.518;9.124;2023-01-10T03:21:26;1.52;;;0.52;;
31734;SDS011;18313;48.518;9.124;2023-01-10T03:23:58;0.55;;;0.40;;
31734;SDS011;18313;48.518;9.124;2023-01-10T03:26:29;0.88;;;0.55;;
31734;SDS011;18313;48.518;9.124;2023-01-10T03:29:07;1.48;;;0.50;;
31734;SDS011;18313;48.518;9.124;2023-01-10T03:31:41;0.55;;;0.40;;
31734;SDS011;18313;48.518;9.124;2023-01-10T03:34:13;0.40;;;0.40;;
31734;SDS011;18313;48.518;9.124;2023-01-10T03:36:44;0.30;;;0.30;;
31734;SDS011;18313;48.518;9.124;2023-01-10T03:39:29;0.40;;;0.30;;
31734;SDS011;18313;48.518;9.124;2023-01-10T03:42:14;0.57;;;0.50;;
31734;SDS011;18313;48.518;9.124;2023-01-10T03:44:57;0.40;;;0.40;;
31734;SDS011;18313;48.518;9.124;2023-01-10T03:50:09;1.95;;;0.40;;
31734;SDS011;18313;48.518;9.124;2023-01-10T03:52:40;0.45;;;0.30;;
31734;SDS011;18313;48.518;9.124;2023-01-10T03:55:10;0.63;;;0.32;;
31734;SDS011;18313;48.518;9.124;2023-01-10T03:57:41;0.40;;;0.30;;
31734;SDS011;18313;48.518;9.124;2023-01-10T04:00:11;0.93;;;0.30;;
31734;SDS011;18313;48.518;9.124;2023-01-10T04:02:39;0.63;;;0.40;;
31734;SDS011;18313;48.518;9.124;2023-01-10T04:05:07;0.50;;;0.50;;
31734;SDS011;18313;48.518;9.124;2023-01-10T04:07:34;0.40;;;0.40;;
31734;SDS011;18313;48.518;9.124;2023-01-10T04:10:05;0.68;;;0.30;;
31734;SDS011;18313;48.518;9.124;2023-01-10T04:12:33;1.35;;;0.50;;
31734;SDS011;18313;48.518;9.124;2023-01-10T04:15:00;0.50;;;0.40;;
31734;SDS011;18313;48.518;9.124;2023-01-10T04:17:28;1.85;;;0.47;;
31734;SDS011;18313;48.518;9.124;2023-01-10T04:19:55;0.38;;;0.38;;
31734;SDS011;18313;48.518;9.124;2023-01-10T04:22:22;0.40;;;0.40;;
31734;SDS011;18313;48.518;9.124;2023-01-10T04:24:49;1.65;;;0.40;;
31734;SDS011;18313;48.518;9.124;2023-01-10T04:27:17;2.63;;;0.50;;
31734;SDS011;18313;48.518;9.124;2023-01-10T04:29:45;0.45;;;0.40;;
31734;SDS011;18313;48.518;9.124;2023-01-10T04:32:13;1.48;;;0.50;;
31734;SDS011;18313;48.518;9.124;2023-01-10T04:34:40;0.73;;;0.40;;
31734;SDS011;18313;48.518;9.124;2023-01-10T04:37:07;0.40;;;0.40;;
31734;SDS011;18313;48.518;9.124;2023-01-10T04:39:34;1.17;;;0.50;;
31734;SDS011;18313;48.518;9.124;2023-01-10T04:42:02;0.50;;;0.50;;
31734;SDS011;18313;48.518;9.124;2023-01-10T04:44:29;0.50;;;0.47;;
31734;SDS011;18313;48.518;9.124;2023-01-10T04:46:56;0.55;;;0.40;;
31734;SDS011;18313;48.518;9.124;2023-01-10T04:49:23;1.20;;;0.50;;
31734;SDS011;18313;48.518;9.124;2023-01-10T04:51:51;1.42;;;0.55;;
31734;SDS011;18313;48.518;9.124;2023-01-10T04:54:19;2.40;;;0.57;;
31734;SDS011;18313;48.518;9.124;2023-01-10T04:56:49;1.10;;;0.70;;
31734;SDS011;18313;48.518;9.124;2023-01-10T04:59:16;1.75;;;0.68;;
31734;SDS011;18313;48.518;9.124;2023-01-10T05:01:44;3.13;;;0.70;;
31734;SDS011;18313;48.518;9.124;2023-01-10T05:04:11;2.08;;;0.90;;
31734;SDS011;18313;48.518;9.124;2023-01-10T05:06:38;2.80;;;0.90;;
31734;SDS011;18313;48.518;9.124;2023-01-10T05:09:06;4.97;;;1.00;;
31734;SDS011;18313;48.518;9.124;2023-01-10T05:11:34;2.47;;;1.05;;
31734;SDS011;18313;48.518;9.124;2023-01-10T05:14:01;2.90;;;0.90;;
31734;SDS011;18313;48.518;9.124;2023-01-10T05:16:29;3.22;;;1.02;;
31734;SDS011;18313;48.518;9.124;2023-01-10T05:18:56;2.88;;;0.80;;
31734;SDS011;18313;48.518;9.124;2023-01-10T05:21:23;2.97;;;0.80;;
31734;SDS011;18313;48.518;9.124;2023-01-10T05:23:50;2.70;;;0.75;;
31734;SDS011;18313;48.518;9.124;2023-01-10T05:26:18;2.95;;;0.90;;
31734;SDS011;18313;48.518;9.124;2023-01-10T05:28:47;5.13;;;0.93;;
31734;SDS011;18313;48.518;9.124;2023-01-10T05:31:15;4.00;;;1.20;;
31734;SDS011;18313;48.518;9.124;2023-01-10T05:33:46;4.35;;;1.05;;
31734;SDS011;18313;48.518;9.124;2023-01-10T05:36:15;4.60;;;1.08;;
31734;SDS011;18313;48.518;9.124;2023-01-10T05:38:43;4.75;;;1.15;;
31734;SDS011;18313;48.518;9.124;2023-01-10T05:41:10;7.20;;;1.30;;
31734;SDS011;18313;48.518;9.124;2023-01-10T05:43:38;10.20;;;1.52;;
31734;SDS011;18313;48.518;9.124;2023-01-10T05:46:05;5.63;;;1.27;;
31734;SDS011;18313;48.518;9.124;2023-01-10T05:48:32;6.57;;;1.50;;
31734;SDS011;18313;48.518;9.124;2023-01-10T05:50:59;4.45;;;1.30;;
31734;SDS011;18313;48.518;9.124;2023-01-10T05:53:27;4.57;;;1.25;;
31734;SDS011;18313;48.518;9.124;2023-01-10T05:55:55;4.55;;;1.60;;
31734;SDS011;18313;48.518;9.124;2023-01-10T05:58:25;5.13;;;1.48;;
31734;SDS011;18313;48.518;9.124;2023-01-10T06:00:53;5.32;;;1.60;;
31734;SDS011;18313;48.518;9.124;2023-01-10T06:03:22;5.03;;;1.85;;
31734;SDS011;18313;48.518;9.124;2023-01-10T06:05:50;5.82;;;2.03;;
31734;SDS011;18313;48.518;9.124;2023-01-10T06:08:19;9.63;;;1.80;;
31734;SDS011;18313;48.518;9.124;2023-01-10T06:10:46;11.60;;;1.85;;
31734;SDS011;18313;48.518;9.124;2023-01-10T06:13:13;8.98;;;2.15;;
31734;SDS011;18313;48.518;9.124;2023-01-10T06:15:42;12.10;;;1.88;;
31734;SDS011;18313;48.518;9.124;2023-01-10T06:18:09;7.97;;;1.73;;
31734;SDS011;18313;48.518;9.124;2023-01-10T06:20:38;7.50;;;1.55;;
31734;SDS011;18313;48.518;9.124;2023-01-10T06:23:06;5.75;;;1.63;;
31734;SDS011;18313;48.518;9.124;2023-01-10T06:25:34;10.27;;;1.75;;
31734;SDS011;18313;48.518;9.124;2023-01-10T06:28:06;12.05;;;1.90;;
31734;SDS011;18313;48.518;9.124;2023-01-10T06:30:37;9.13;;;1.67;;
31734;SDS011;18313;48.518;9.124;2023-01-10T06:33:08;8.43;;;1.63;;
31734;SDS011;18313;48.518;9.124;2023-01-10T06:35:37;7.78;;;1.80;;
31734;SDS011;18313;48.518;9.124;2023-01-10T06:38:05;6.95;;;1.88;;
31734;SDS011;18313;48.518;9.124;2023-01-10T06:40:32;9.75;;;2.13;;
31734;SDS011;18313;48.518;9.124;2023-01-10T06:43:00;7.60;;;1.58;;
31734;SDS011;18313;48.518;9.124;2023-01-10T06:45:27;10.43;;;1.67;;
31734;SDS011;18313;48.518;9.124;2023-01-10T06:47:54;8.18;;;2.10;;
31734;SDS011;18313;48.518;9.124;2023-01-10T06:50:21;7.22;;;1.80;;
31734;SDS011;18313;48.518;9.124;2023-01-10T06:52:58;7.22;;;1.67;;
31734;SDS011;18313;48.518;9.124;2023-01-10T06:55:27;8.70;;;2.15;;
31734;SDS011;18313;48.518;9.124;2023-01-10T06:57:56;6.38;;;1.63;;
31734;SDS011;18313;48.518;9.124;2023-01-10T07:00:24;7.75;;;1.60;;
31734;SDS011;18313;48.518;9.124;2023-01-10T07:02:53;5.07;;;1.50;;
31734;SDS011;18313;48.518;9.124;2023-01-10T07:05:21;11.70;;;2.03;;
31734;SDS011;18313;48.518;9.124;2023-01-10T07:07:48;8.48;;;1.67;;
31734;SDS011;18313;48.518;9.124;2023-01-10T07:10:16;10.20;;;2.45;;
31734;SDS011;18313;48.518;9.124;2023-01-10T07:12:43;9.02;;;1.58;;
31734;SDS011;18313;48.518;9.124;2023-01-10T07:15:10;7.43;;;1.60;;
31734;SDS011;18313;48.518;9.124;2023-01-10T07:17:37;8.02;;;2.10;;
31734;SDS011;18313;48.518;9.124;2023-01-10T07:20:04;6.25;;;1.42;;
31734;SDS011;18313;48.518;9.124;2023-01-10T07:22:32;10.13;;;2.08;;
31734;SDS011;18313;48.518;9.124;2023-01-10T07:24:59;12.93;;;1.95;;
31734;SDS011;18313;48.518;9.124;2023-01-10T07:27:28;7.25;;;1.75;;
31734;SDS011;18313;48.518;9.124;2023-01-10T07:29:57;7.78;;;1.80;;
31734;SDS011;18313;48.518;9.124;2023-01-10T07:32:24;9.65;;;2.05;;
31734;SDS011;18313;48.518;9.124;2023-01-10T07:34:52;9.50;;;1.90;;
31734;SDS011;18313;48.518;9.124;2023-01-10T07:37:19;9.07;;;2.30;;
31734;SDS011;18313;48.518;9.124;2023-01-10T07:39:47;6.28;;;1.60;;
31734;SDS011;18313;48.518;9.124;2023-01-10T07:42:14;8.73;;;1.70;;
31734;SDS011;18313;48.518;9.124;2023-01-10T07:44:41;9.07;;;2.25;;
31734;SDS011;18313;48.518;9.124;2023-01-10T07:47:08;7.70;;;1.90;;
31734;SDS011;18313;48.518;9.124;2023-01-10T07:49:36;8.55;;;1.70;;
31734;SDS011;18313;48.518;9.124;2023-01-10T07:52:03;11.07;;;1.95;;
31734;SDS011;18313;48.518;9.124;2023-01-10T07:54:33;13.00;;;2.53;;
31734;SDS011;18313;48.518;9.124;2023-01-10T07:57:01;9.80;;;2.88;;
31734;SDS011;18313;48.518;9.124;2023-01-10T07:59:28;15.57;;;3.63;;
31734;SDS011;18313;48.518;9.124;2023-01-10T08:01:55;12.93;;;3.03;;
31734;SDS011;18313;48.518;9.124;2023-01-10T08:04:23;12.85;;;3.25;;
31734;SDS011;18313;48.518;9.124;2023-01-10T08:06:50;10.38;;;2.63;;
31734;SDS011;18313;48.518;9.124;2023-01-10T08:09:20;13.30;;;2.50;;
31734;SDS011;18313;48.518;9.124;2023-01-10T08:11:47;11.93;;;2.55;;
31734;SDS011;18313;48.518;9.124;2023-01-10T08:14:15;6.55;;;1.95;;
31734;SDS011;18313;48.518;9.124;2023-01-10T08:16:42;12.85;;;1.98;;
31734;SDS011;18313;48.518;9.124;2023-01-10T08:19:09;8.57;;;2.05;;
31734;SDS011;18313;48.518;9.124;2023-01-10T08:21:40;6.68;;;1.77;;
31734;SDS011;18313;48.518;9.124;2023-01-10T08:24:07;7.18;;;2.75;;
31734;SDS011;18313;48.518;9.124;2023-01-10T08:26:34;6.57;;;1.50;;
31734;SDS011;18313;48.518;9.124;2023-01-10T08:29:02;7.97;;;1.70;;
31734;SDS011;18313;48.518;9.124;2023-01-10T08:31:29;7.97;;;1.88;;
31734;SDS011;18313;48.518;9.124;2023-01-10T08:33:56;8.52;;;2.17;;
31734;SDS011;18313;48.518;9.124;2023-01-10T08:36:23;6.53;;;1.58;;
31734;SDS011;18313;48.518;9.124;2023-01-10T08:38:53;6.95;;;2.00;;
31734;SDS011;18313;48.518;9.124;2023-01-10T08:41:21;8.48;;;1.65;;
31734;SDS011;18313;48.518;9.124;2023-01-10T08:43:48;6.53;;;1.60;;
31734;SDS011;18313;48.518;9.124;2023-01-10T08:46:16;6.88;;;1.52;;
31734;SDS011;18313;48.518;9.124;2023-01-10T08:48:45;7.28;;;1.50;;
31734;SDS011;18313;48.518;9.124;2023-01-10T08:51:13;6.18;;;1.52;;
31734;SDS011;18313;48.518;9.124;2023-01-10T08:53:41;7.38;;;1.90;;
31734;SDS011;18313;48.518;9.124;2023-01-10T08:56:09;10.02;;;1.90;;
31734;SDS011;18313;48.518;9.124;2023-01-10T08:58:37;9.70;;;2.42;;
31734;SDS011;18313;48.518;9.124;2023-01-10T09:01:05;11.23;;;2.20;;
31734;SDS011;18313;48.518;9.124;2023-01-10T09:03:33;9.82;;;2.50;;
31734;SDS011;18313;48.518;9.124;2023-01-10T09:06:01;7.40;;;2.13;;
31734;SDS011;18313;48.518;9.124;2023-01-10T09:08:28;6.70;;;2.03;;
31734;SDS011;18313;48.518;9.124;2023-01-10T09:10:58;7.03;;;1.55;;
31734;SDS011;18313;48.518;9.124;2023-01-10T09:13:26;7.32;;;1.88;;
31734;SDS011;18313;48.518;9.124;2023-01-10T09:15:54;7.68;;;1.60;;
31734;SDS011;18313;48.518;9.124;2023-01-10T09:18:22;7.80;;;1.65;;
31734;SDS011;18313;48.518;9.124;2023-01-10T09:20:50;7.07;;;1.55;;
31734;SDS011;18313;48.518;9.124;2023-01-10T09:23:18;5.43;;;1.42;;
31734;SDS011;18313;48.518;9.124;2023-01-10T09:25:47;7.05;;;2.00;;
31734;SDS011;18313;48.518;9.124;2023-01-10T09:28:16;11.48;;;2.00;;
31734;SDS011;18313;48.518;9.124;2023-01-10T09:30:44;8.50;;;1.50;;
31734;SDS011;18313;48.518;9.124;2023-01-10T09:33:12;9.70;;;1.70;;
31734;SDS011;18313;48.518;9.124;2023-01-10T09:35:41;6.65;;;1.52;;
31734;SDS011;18313;48.518;9.124;2023-01-10T09:38:10;6.80;;;1.70;;
31734;SDS011;18313;48.518;9.124;2023-01-10T09:46:33;6.13;;;1.63;;
31734;SDS011;18313;48.518;9.124;2023-01-10T09:49:25;6.47;;;1.75;;
31734;SDS011;18313;48.518;9.124;2023-01-10T09:52:24;10.38;;;2.17;;
31734;SDS011;18313;48.518;9.124;2023-01-10T09:54:57;7.55;;;1.63;;
31734;SDS011;18313;48.518;9.124;2023-01-10T09:57:29;7.80;;;1.90;;
31734;SDS011;18313;48.518;9.124;2023-01-10T09:59:56;8.52;;;2.17;;
31734;SDS011;18313;48.518;9.124;2023-01-10T10:02:33;9.13;;;2.22;;
31734;SDS011;18313;48.518;9.124;2023-01-10T10:05:12;6.18;;;1.58;;
31734;SDS011;18313;48.518;9.124;2023-01-10T10:08:00;9.63;;;1.42;;
31734;SDS011;18313;48.518;9.124;2023-01-10T10:13:10;5.93;;;1.35;;
31734;SDS011;18313;48.518;9.124;2023-01-10T10:24:15;8.52;;;1.45;;
31734;SDS011;18313;48.518;9.124;2023-01-10T10:32:48;6.63;;;1.77;;
31734;SDS011;18313;48.518;9.124;2023-01-10T10:35:28;6.30;;;1.50;;
31734;SDS011;18313;48.518;9.124;2023-01-10T10:38:13;6.40;;;1.15;;
31734;SDS011;18313;48.518;9.124;2023-01-10T10:40:46;10.73;;;1.73;;
31734;SDS011;18313;48.518;9.124;2023-01-10T10:43:17;8.20;;;1.48;;
31734;SDS011;18313;48.518;9.124;2023-01-10T10:48:30;10.07;;;1.50;;
31734;SDS011;18313;48.518;9.124;2023-01-10T10:51:13;6.18;;;1.35;;
31734;SDS011;18313;48.518;9.124;2023-01-10T10:53:47;7.07;;;1.15;;
31734;SDS011;18313;48.518;9.124;2023-01-10T10:56:15;7.57;;;1.60;;
31734;SDS011;18313;48.518;9.124;2023-01-10T10:58:45;5.28;;;1.30;;
31734;SDS011;18313;48.518;9.124;2023-01-10T11:01:15;4.97;;;1.10;;
31734;SDS011;18313;48.518;9.124;2023-01-10T11:03:55;4.97;;;1.00;;
31734;SDS011;18313;48.518;9.124;2023-01-10T11:06:26;7.40;;;1.45;;
31734;SDS011;18313;48.518;9.124;2023-01-10T11:09:00;7.55;;;1.38;;
31734;SDS011;18313;48.518;9.124;2023-01-10T11:11:33;12.98;;;1.65;;
31734;SDS011;18313;48.518;9.124;2023-01-10T11:14:10;6.10;;;1.10;;
31734;SDS011;18313;48.518;9.124;2023-01-10T11:16:39;8.35;;;1.38;;
31734;SDS011;18313;48.518;9.124;2023-01-10T11:19:20;8.52;;;1.27;;
31734;SDS011;18313;48.518;9.124;2023-01-10T11:21:55;5.15;;;1.23;;
31734;SDS011;18313;48.518;9.124;2023-01-10T11:24:29;5.13;;;1.20;;
31734;SDS011;18313;48.518;9.124;2023-01-10T11:27:18;7.60;;;1.30;;
31734;SDS011;18313;48.518;9.124;2023-01-10T11:29:49;6.90;;;1.40;;
31734;SDS011;18313;48.518;9.124;2023-01-10T11:32:17;4.45;;;1.70;;
31734;SDS011;18313;48.518;9.124;2023-01-10T11:34:51;5.20;;;2.13;;
31734;SDS011;18313;48.518;9.124;2023-01-10T11:37:30;5.28;;;1.60;;
31734;SDS011;18313;48.518;9.124;2023-01-10T11:40:18;7.65;;;1.40;;
31734;SDS011;18313;48.518;9.124;2023-01-10T11:42:53;7.72;;;1.30;;
31734;SDS011;18313;48.518;9.124;2023-01-10T11:47:59;5.25;;;1.35;;
31734;SDS011;18313;48.518;9.124;2023-01-10T11:50:29;5.45;;;1.00;;
31734;SDS011;18313;48.518;9.124;2023-01-10T11:52:58;5.93;;;1.60;;
31734;SDS011;18313;48.518;9.124;2023-01-10T11:55:27;6.28;;;1.50;;
31734;SDS011;18313;48.518;9.124;2023-01-10T11:58:04;5.03;;;1.55;;
31734;SDS011;18313;48.518;9.124;2023-01-10T12:00:45;6.88;;;1.40;;
31734;SDS011;18313;48.518;9.124;2023-01-10T12:03:27;5.35;;;1.20;;
31734;SDS011;18313;48.518;9.124;2023-01-10T12:06:04;4.35;;;1.20;;
31734;SDS011;18313;48.518;9.124;2023-01-10T12:08:35;5.32;;;1.30;;
31734;SDS011;18313;48.518;9.124;2023-01-10T12:11:27;4.35;;;1.20;;
31734;SDS011;18313;48.518;9.124;2023-01-10T12:13:53;5.32;;;1.40;;
31734;SDS011;18313;48.518;9.124;2023-01-10T12:16:25;7.60;;;1.65;;
31734;SDS011;18313;48.518;9.124;2023-01-10T12:19:00;5.82;;;1.35;;
31734;SDS011;18313;48.518;9.124;2023-01-10T12:21:40;6.15;;;1.10;;
31734;SDS011;18313;48.518;9.124;2023-01-10T12:24:14;4.53;;;1.20;;
31734;SDS011;18313;48.518;9.124;2023-01-10T12:26:41;6.45;;;1.48;;
31734;SDS011;18313;48.518;9.124;2023-01-10T12:29:11;4.82;;;1.00;;
31734;SDS011;18313;48.518;9.124;2023-01-10T12:32:00;5.97;;;1.30;;
31734;SDS011;18313;48.518;9.124;2023-01-10T12:34:34;5.53;;;1.00;;
31734;SDS011;18313;48.518;9.124;2023-01-10T12:37:11;5.80;;;1.40;;
31734;SDS011;18313;48.518;9.124;2023-01-10T12:39:49;6.53;;;1.30;;
31734;SDS011;18313;48.518;9.124;2023-01-10T12:42:28;8.48;;;1.08;;
31734;SDS011;18313;48.518;9.124;2023-01-10T12:45:55;7.60;;;1.13;;
31734;SDS011;18313;48.518;9.124;2023-01-10T12:51:13;5.30;;;1.20;;
31734;SDS011;18313;48.518;9.124;2023-01-10T12:53:49;5.93;;;1.02;;
31734;SDS011;18313;48.518;9.124;2023-01-10T12:59:01;8.13;;;1.30;;
31734;SDS011;18313;48.518;9.124;2023-01-10T13:01:36;4.18;;;0.90;;
31734;SDS011;18313;48.518;9.124;2023-01-10T13:04:08;5.13;;;1.27;;
31734;SDS011;18313;48.518;9.124;2023-01-10T13:06:40;5.95;;;1.02;;
31734;SDS011;18313;48.518;9.124;2023-01-10T13:09:14;6.70;;;1.35;;
31734;SDS011;18313;48.518;9.124;2023-01-10T13:11:54;8.15;;;1.30;;
31734;SDS011;18313;48.518;9.124;2023-01-10T13:14:39;5.82;;;1.48;;
31734;SDS011;18313;48.518;9.124;2023-01-10T13:22:42;4.63;;;1.17;;
31734;SDS011;18313;48.518;9.124;2023-01-10T13:25:20;6.68;;;1.23;;
31734;SDS011;18313;48.518;9.124;2023-01-10T13:27:56;8.10;;;1.40;;
31734;SDS011;18313;48.518;9.124;2023-01-10T13:30:37;7.47;;;1.30;;
31734;SDS011;18313;48.518;9.124;2023-01-10T13:33:24;6.97;;;1.27;;
31734;SDS011;18313;48.518;9.124;2023-01-10T13:35:54;4.07;;;1.05;;
31734;SDS011;18313;48.518;9.124;2023-01-10T13:38:29;8.45;;;1.30;;
31734;SDS011;18313;48.518;9.124;2023-01-10T13:41:10;7.68;;;1.00;;
31734;SDS011;18313;48.518;9.124;2023-01-10T13:43:58;5.93;;;1.17;;
31734;SDS011;18313;48.518;9.124;2023-01-10T13:46:31;7.40;;;1.27;;
31734;SDS011;18313;48.518;9.124;2023-01-10T13:51:29;4.90;;;1.08;;
31734;SDS011;18313;48.518;9.124;2023-01-10T13:56:39;7.75;;;1.30;;
31734;SDS011;18313;48.518;9.124;2023-01-10T13:59:59;4.93;;;1.10;;
31734;SDS011;18313;48.518;9.124;2023-01-10T14:02:25;3.45;;;1.08;;
31734;SDS011;18313;48.518;9.124;2023-01-10T14:05:02;4.53;;;1.08;;
31734;SDS011;18313;48.518;9.124;2023-01-10T14:07:34;4.57;;;1.10;;
31734;SDS011;18313;48.518;9.124;2023-01-10T14:10:31;4.18;;;1.02;;
31734;SDS011;18313;48.518;9.124;2023-01-10T14:13:05;5.22;;;1.27;;
31734;SDS011;18313;48.518;9.124;2023-01-10T14:15:41;6.18;;;1.08;;
31734;SDS011;18313;48.518;9.124;2023-01-10T14:21:18;4.40;;;1.02;;
31734;SDS011;18313;48.518;9.124;2023-01-10T14:23:49;6.35;;;1.33;;
31734;SDS011;18313;48.518;9.124;2023-01-10T14:26:35;5.45;;;1.10;;
31734;SDS011;18313;48.518;9.124;2023-01-10T14:29:08;5.63;;;1.35;;
31734;SDS011;18313;48.518;9.124;2023-01-10T14:31:44;5.70;;;1.35;;
31734;SDS011;18313;48.518;9.124;2023-01-10T14:34:17;4.13;;;1.10;;
31734;SDS011;18313;48.518;9.124;2023-01-10T14:39:26;6.43;;;1.25;;
31734;SDS011;18313;48.518;9.124;2023-01-10T14:41:56;4.65;;;1.20;;
31734;SDS011;18313;48.518;9.124;2023-01-10T14:44:30;4.60;;;1.10;;
31734;SDS011;18313;48.518;9.124;2023-01-10T14:47:24;6.30;;;1.33;;
31734;SDS011;18313;48.518;9.124;2023-01-10T14:49:55;6.97;;;1.20;;
31734;SDS011;18313;48.518;9.124;2023-01-10T14:52:25;5.40;;;1.85;;
31734;SDS011;18313;48.518;9.124;2023-01-10T14:54:54;6.78;;;1.50;;
31734;SDS011;18313;48.518;9.124;2023-01-10T14:57:36;9.13;;;2.42;;
31734;SDS011;18313;48.518;9.124;2023-01-10T15:00:13;7.00;;;1.70;;
31734;SDS011;18313;48.518;9.124;2023-01-10T15:02:43;4.60;;;1.30;;
31734;SDS011;18313;48.518;9.124;2023-01-10T15:05:16;7.28;;;1.30;;
31734;SDS011;18313;48.518;9.124;2023-01-10T15:07:46;7.30;;;1.17;;
31734;SDS011;18313;48.518;9.124;2023-01-10T15:10:27;3.88;;;1.42;;
31734;SDS011;18313;48.518;9.124;2023-01-10T15:12:59;5.15;;;1.10;;
31734;SDS011;18313;48.518;9.124;2023-01-10T15:15:32;7.03;;;1.10;;
31734;SDS011;18313;48.518;9.124;2023-01-10T15:18:05;9.17;;;1.50;;
31734;SDS011;18313;48.518;9.124;2023-01-10T15:20:43;4.45;;;1.60;;
31734;SDS011;18313;48.518;9.124;2023-01-10T15:23:12;6.88;;;1.40;;
31734;SDS011;18313;48.518;9.124;2023-01-10T15:25:43;6.22;;;1.55;;
31734;SDS011;18313;48.518;9.124;2023-01-10T15:28:14;4.40;;;1.23;;
31734;SDS011;18313;48.518;9.124;2023-01-10T15:30:42;8.95;;;1.83;;
31734;SDS011;18313;48.518;9.124;2023-01-10T15:33:18;3.50;;;1.15;;
31734;SDS011;18313;48.518;9.124;2023-01-10T15:35:49;6.65;;;1.42;;
31734;SDS011;18313;48.518;9.124;2023-01-10T15:38:18;10.43;;;1.67;;
31734;SDS011;18313;48.518;9.124;2023-01-10T15:40:53;12.10;;;1.80;;
31734;SDS011;18313;48.518;9.124;2023-01-10T15:43:28;4.85;;;1.50;;
31734;SDS011;18313;48.518;9.124;2023-01-10T15:45:58;5.43;;;1.45;;
31734;SDS011;18313;48.518;9.124;2023-01-10T15:48:28;6.88;;;1.60;;
31734;SDS011;18313;48.518;9.124;2023-01-10T15:56:52;7.07;;;1.80;;
31734;SDS011;18313;48.518;9.124;2023-01-10T15:59:46;3.72;;;1.38;;
31734;SDS011;18313;48.518;9.124;2023-01-10T16:02:37;8.50;;;1.75;;
31734;SDS011;18313;48.518;9.124;2023-01-10T16:05:06;9.52;;;1.67;;
31734;SDS011;18313;48.518;9.124;2023-01-10T16:07:41;6.80;;;1.77;;
31734;SDS011;18313;48.518;9.124;2023-01-10T16:10:15;9.23;;;2.20;;
31734;SDS011;18313;48.518;9.124;2023-01-10T16:12:49;9.10;;;1.60;;
31734;SDS011;18313;48.518;9.124;2023-01-10T16:15:36;5.30;;;1.60;;
31734;SDS011;18313;48.518;9.124;2023-01-10T16:18:06;4.82;;;1.75;;
31734;SDS011;18313;48.518;9.124;2023-01-10T16:20:34;7.35;;;1.95;;
31734;SDS011;18313;48.518;9.124;2023-01-10T16:23:11;7.82;;;2.42;;
31734;SDS011;18313;48.518;9.124;2023-01-10T16:25:42;7.03;;;1.88;;
31734;SDS011;18313;48.518;9.124;2023-01-10T16:28:21;8.70;;;1.98;;
31734;SDS011;18313;48.518;9.124;2023-01-10T16:30:49;6.50;;;1.90;;
31734;SDS011;18313;48.518;9.124;2023-01-10T16:33:18;5.72;;;1.60;;